Time,TemperatureF,DewpointF,PressureIn,WindDirection,WindDirectionDegrees,WindSpeedMPH,WindSpeedGustMPH,Humidity,HourlyPrecipIn,Conditions,Clouds,dailyrainin,SoftwareType,DateUTC
2013-10-02 00:00:00,59.1,34.2,30.13,West,262,0.0,0.0,39,0.00,,,0.00,VWS V15.00,2013-10-02 04:00:00,
2013-10-02 00:01:00,57.1,28.3,30.15,West,262,0.0,0.0,33,0.00,,,0.00,VWS V14.01,2013-10-02 04:01:00,
2013-10-02 00:06:00,56.9,27.4,30.15,West,262,0.0,0.0,32,0.00,,,0.00,VWS V14.01,2013-10-02 04:06:00,
2013-10-02 00:11:00,56.8,26.5,30.15,West,262,0.0,0.0,31,0.00,,,0.00,VWS V14.01,2013-10-02 04:11:00,
2013-10-02 00:16:00,56.6,26.3,30.15,West,262,0.0,0.0,31,0.00,,,0.00,VWS V14.01,2013-10-02 04:16:00,
2013-10-02 00:21:00,56.5,25.5,30.15,West,262,0.0,0.0,30,0.00,,,0.00,VWS V14.01,2013-10-02 04:21:00,
2013-10-02 00:26:00,56.4,23.7,30.15,West,262,0.0,0.0,28,0.00,,,0.00,VWS V14.01,2013-10-02 04:26:00,
2013-10-02 00:30:00,58.0,31.2,30.14,West,262,0.0,0.0,36,0.00,,,0.00,VWS V15.00,2013-10-02 04:30:00,
2013-10-02 00:31:00,56.3,22.8,30.15,West,262,0.0,0.0,27,0.00,,,0.00,VWS V14.01,2013-10-02 04:31:00,
2013-10-02 00:36:00,56.2,22.7,30.15,West,262,0.0,0.0,27,0.00,,,0.00,VWS V14.01,2013-10-02 04:36:00,
2013-10-02 00:41:00,56.1,23.5,30.15,West,262,0.0,0.0,28,0.00,,,0.00,VWS V14.01,2013-10-02 04:41:00,
2013-10-02 00:46:00,56.0,23.4,30.15,West,262,0.0,0.0,28,0.00,,,0.00,VWS V14.01,2013-10-02 04:46:00,
2013-10-02 00:51:00,55.8,23.2,30.15,West,262,0.0,0.0,28,0.00,,,0.00,VWS V14.01,2013-10-02 04:51:00,
2013-10-02 00:56:00,55.7,23.1,30.15,West,262,0.0,0.0,28,0.00,,,0.00,VWS V14.01,2013-10-02 04:56:00,
2013-10-02 01:00:00,57.1,28.3,30.15,West,262,0.0,0.0,33,0.00,,,0.00,VWS V15.00,2013-10-02 05:00:00,
2013-10-02 01:01:00,55.6,23.0,30.15,West,262,0.0,0.0,28,0.00,,,0.00,VWS V14.01,2013-10-02 05:01:00,
2013-10-02 01:06:00,55.4,22.9,30.15,West,262,0.0,0.0,28,0.00,,,0.00,VWS V14.01,2013-10-02 05:06:00,
2013-10-02 01:11:00,55.3,22.8,30.15,West,262,0.0,0.0,28,0.00,,,0.00,VWS V14.01,2013-10-02 05:11:00,
2013-10-02 01:16:00,55.2,21.8,30.15,West,262,0.0,0.0,27,0.00,,,0.00,VWS V14.01,2013-10-02 05:16:00,
2013-10-02 01:21:00,55.1,21.7,30.15,West,262,0.0,0.0,27,0.00,,,0.00,VWS V14.01,2013-10-02 05:21:00,
2013-10-02 01:26:00,54.9,22.4,30.15,West,262,0.0,0.0,28,0.00,,,0.00,VWS V14.01,2013-10-02 05:26:00,
2013-10-02 01:30:00,56.4,22.9,30.15,West,262,0.0,0.0,27,0.00,,,0.00,VWS V15.00,2013-10-02 05:30:00,
2013-10-02 01:31:00,54.9,21.6,30.15,West,262,0.0,0.0,27,0.00,,,0.00,VWS V14.01,2013-10-02 05:31:00,
2013-10-02 01:36:00,54.7,21.4,30.15,West,262,0.0,0.0,27,0.00,,,0.00,VWS V14.01,2013-10-02 05:36:00,
2013-10-02 01:41:00,54.6,20.4,30.15,West,262,0.0,0.0,26,0.00,,,0.00,VWS V14.01,2013-10-02 05:41:00,
2013-10-02 01:46:00,54.5,21.2,30.15,West,262,0.0,0.0,27,0.00,,,0.00,VWS V14.01,2013-10-02 05:46:00,
2013-10-02 01:51:00,54.4,21.1,30.15,West,262,0.0,0.0,27,0.00,,,0.00,VWS V14.01,2013-10-02 05:51:00,
2013-10-02 01:56:00,54.3,21.0,30.15,West,262,0.0,0.0,27,0.00,,,0.00,VWS V14.01,2013-10-02 05:56:00,
2013-10-02 02:00:00,55.6,23.0,30.15,West,262,0.0,0.0,28,0.00,,,0.00,VWS V15.00,2013-10-02 06:00:00,
2013-10-02 02:01:00,54.2,20.1,30.15,West,262,0.0,0.0,26,0.00,,,0.00,VWS V14.01,2013-10-02 06:01:00,
2013-10-02 02:06:00,54.1,19.1,30.15,West,262,0.0,0.0,25,0.00,,,0.00,VWS V14.01,2013-10-02 06:06:00,
2013-10-02 02:11:00,54.0,19.9,30.15,West,262,0.0,0.0,26,0.00,,,0.00,VWS V14.01,2013-10-02 06:11:00,
2013-10-02 02:16:00,53.9,19.8,30.15,West,262,0.0,0.0,26,0.00,,,0.00,VWS V14.01,2013-10-02 06:16:00,
2013-10-02 02:21:00,53.8,19.7,30.15,West,262,0.0,0.0,26,0.00,,,0.00,VWS V14.01,2013-10-02 06:21:00,
2013-10-02 02:26:00,53.7,19.6,30.15,West,262,0.0,0.0,26,0.00,,,0.00,VWS V14.01,2013-10-02 06:26:00,
2013-10-02 02:30:00,54.9,21.6,30.15,West,262,0.0,0.0,27,0.00,,,0.00,VWS V15.00,2013-10-02 06:30:00,
2013-10-02 02:31:00,53.6,18.6,30.15,West,262,0.0,0.0,25,0.00,,,0.00,VWS V14.01,2013-10-02 06:31:00,
2013-10-02 02:36:00,53.6,18.6,30.15,West,262,0.0,0.0,25,0.00,,,0.00,VWS V14.01,2013-10-02 06:36:00,
2013-10-02 02:41:00,53.5,17.6,30.15,West,262,0.0,0.0,24,0.00,,,0.00,VWS V14.01,2013-10-02 06:41:00,
2013-10-02 02:46:00,53.5,17.6,30.14,West,262,0.0,0.0,24,0.00,,,0.00,VWS V14.01,2013-10-02 06:46:00,
2013-10-02 02:51:00,53.4,17.5,30.15,West,262,0.0,0.0,24,0.00,,,0.00,VWS V14.01,2013-10-02 06:51:00,
2013-10-02 02:56:00,53.3,17.5,30.14,West,262,0.0,0.0,24,0.00,,,0.00,VWS V14.01,2013-10-02 06:56:00,
2013-10-02 03:00:00,54.2,20.1,30.15,West,262,0.0,0.0,26,0.00,,,0.00,VWS V15.00,2013-10-02 07:00:00,
2013-10-02 03:01:00,53.3,17.5,30.14,West,262,0.0,0.0,24,0.00,,,0.00,VWS V14.01,2013-10-02 07:01:00,
2013-10-02 03:06:00,53.3,16.5,30.14,West,262,0.0,0.0,23,0.00,,,0.00,VWS V14.01,2013-10-02 07:06:00,
2013-10-02 03:11:00,53.3,15.4,30.14,West,262,0.0,0.0,22,0.00,,,0.00,VWS V14.01,2013-10-02 07:11:00,
2013-10-02 03:16:00,53.3,14.4,30.14,West,262,0.0,0.0,21,0.00,,,0.00,VWS V14.01,2013-10-02 07:16:00,
2013-10-02 03:21:00,53.4,14.5,30.13,West,262,0.0,0.0,21,0.00,,,0.00,VWS V14.01,2013-10-02 07:21:00,
2013-10-02 03:26:00,53.4,13.4,30.13,West,262,0.0,0.0,20,0.00,,,0.00,VWS V14.01,2013-10-02 07:26:00,
2013-10-02 03:30:00,53.6,19.6,30.15,West,262,0.0,0.0,26,0.00,,,0.00,VWS V15.00,2013-10-02 07:30:00,
2013-10-02 03:31:00,53.6,12.4,30.13,West,262,0.0,0.0,19,0.00,,,0.00,VWS V14.01,2013-10-02 07:31:00,
2013-10-02 03:36:00,53.6,12.4,30.14,West,262,0.0,0.0,19,0.00,,,0.00,VWS V14.01,2013-10-02 07:36:00,
2013-10-02 03:41:00,53.7,12.4,30.14,West,262,0.0,0.0,19,0.00,,,0.00,VWS V14.01,2013-10-02 07:41:00,
2013-10-02 03:46:00,53.7,11.2,30.13,West,262,0.0,0.0,18,0.00,,,0.00,VWS V14.01,2013-10-02 07:46:00,
2013-10-02 03:51:00,53.7,11.2,30.14,West,262,0.0,0.0,18,0.00,,,0.00,VWS V14.01,2013-10-02 07:51:00,
2013-10-02 03:56:00,53.7,11.2,30.13,West,262,0.0,0.0,18,0.00,,,0.00,VWS V14.01,2013-10-02 07:56:00,
2013-10-02 04:00:00,53.3,17.5,30.14,West,262,0.0,0.0,24,0.00,,,0.00,VWS V15.00,2013-10-02 08:00:00,
2013-10-02 04:01:00,53.7,11.2,30.13,West,262,0.0,0.0,18,0.00,,,0.00,VWS V14.01,2013-10-02 08:01:00,
2013-10-02 04:06:00,53.7,11.2,30.13,West,262,0.0,0.0,18,0.00,,,0.00,VWS V14.01,2013-10-02 08:06:00,
2013-10-02 04:11:00,53.6,11.1,30.13,West,262,0.0,0.0,18,0.00,,,0.00,VWS V14.01,2013-10-02 08:11:00,
2013-10-02 04:16:00,53.6,11.1,30.13,West,262,0.0,0.0,18,0.00,,,0.00,VWS V14.01,2013-10-02 08:16:00,
2013-10-02 04:21:00,53.5,12.3,30.13,West,262,0.0,0.0,19,0.00,,,0.00,VWS V14.01,2013-10-02 08:21:00,
2013-10-02 04:25:00,53.5,12.3,30.13,West,262,0.0,0.0,19,0.00,,,0.00,VWS V14.01,2013-10-02 08:25:00,
2013-10-02 04:30:00,53.4,12.2,30.14,West,262,0.0,0.0,19,0.00,,,0.00,VWS V14.01,2013-10-02 08:30:00,
2013-10-02 04:35:00,53.3,12.1,30.13,West,262,0.0,0.0,19,0.00,,,0.00,VWS V14.01,2013-10-02 08:35:00,
2013-10-02 04:40:00,53.2,13.2,30.13,West,262,0.0,0.0,20,0.00,,,0.00,VWS V14.01,2013-10-02 08:40:00,
2013-10-02 04:45:00,53.1,13.1,30.14,West,262,0.0,0.0,20,0.00,,,0.00,VWS V14.01,2013-10-02 08:45:00,
2013-10-02 04:50:00,53.1,13.1,30.14,West,262,0.0,0.0,20,0.00,,,0.00,VWS V14.01,2013-10-02 08:50:00,
2013-10-02 04:55:00,53.0,13.0,30.14,West,262,0.0,0.0,20,0.00,,,0.00,VWS V14.01,2013-10-02 08:55:00,
2013-10-02 05:00:00,52.9,11.8,30.14,West,262,0.0,0.0,19,0.00,,,0.00,VWS V14.01,2013-10-02 09:00:00,
2013-10-02 05:05:00,52.9,11.8,30.14,West,262,0.0,0.0,19,0.00,,,0.00,VWS V14.01,2013-10-02 09:05:00,
2013-10-02 05:10:00,52.8,11.7,30.14,West,262,0.0,0.0,19,0.00,,,0.00,VWS V14.01,2013-10-02 09:10:00,
2013-10-02 05:15:00,52.8,11.7,30.14,West,262,0.0,0.0,19,0.00,,,0.00,VWS V14.01,2013-10-02 09:15:00,
2013-10-02 05:20:00,52.7,11.6,30.14,West,262,0.0,0.0,19,0.00,,,0.00,VWS V14.01,2013-10-02 09:20:00,
2013-10-02 05:25:00,52.7,11.6,30.14,West,262,0.0,0.0,19,0.00,,,0.00,VWS V14.01,2013-10-02 09:25:00,
2013-10-02 05:30:00,52.7,11.6,30.14,West,262,0.0,0.0,19,0.00,,,0.00,VWS V14.01,2013-10-02 09:30:00,
2013-10-02 05:35:00,52.7,11.6,30.14,West,262,0.0,0.0,19,0.00,,,0.00,VWS V14.01,2013-10-02 09:35:00,
2013-10-02 05:40:00,52.8,10.5,30.14,West,262,0.0,0.0,18,0.00,,,0.00,VWS V14.01,2013-10-02 09:40:00,
2013-10-02 05:45:00,52.8,10.5,30.14,West,262,0.0,0.0,18,0.00,,,0.00,VWS V14.01,2013-10-02 09:45:00,
2013-10-02 05:50:00,52.9,10.6,30.14,West,262,0.0,0.0,18,0.00,,,0.00,VWS V14.01,2013-10-02 09:50:00,
2013-10-02 05:55:00,52.9,10.6,30.14,West,262,0.0,0.0,18,0.00,,,0.00,VWS V14.01,2013-10-02 09:55:00,
2013-10-02 06:00:00,52.8,10.5,30.14,West,262,0.0,0.0,18,0.00,,,0.00,VWS V14.01,2013-10-02 10:00:00,
2013-10-02 06:05:00,52.8,10.5,30.15,West,262,0.0,0.0,18,0.00,,,0.00,VWS V14.01,2013-10-02 10:05:00,
2013-10-02 06:10:00,52.8,10.5,30.15,West,262,0.0,0.0,18,0.00,,,0.00,VWS V14.01,2013-10-02 10:10:00,
2013-10-02 06:15:00,52.8,10.5,30.15,West,262,0.0,0.0,18,0.00,,,0.00,VWS V14.01,2013-10-02 10:15:00,
2013-10-02 06:20:00,53.0,10.6,30.15,West,262,0.0,0.0,18,0.00,,,0.00,VWS V14.01,2013-10-02 10:20:00,
2013-10-02 06:25:00,53.0,10.6,30.15,West,262,0.0,0.0,18,0.00,,,0.00,VWS V14.01,2013-10-02 10:25:00,
2013-10-02 06:30:00,53.0,9.4,30.15,West,262,0.0,0.0,17,0.00,,,0.00,VWS V14.01,2013-10-02 10:30:00,
2013-10-02 06:35:00,53.1,9.4,30.15,West,262,0.0,0.0,17,0.00,,,0.00,VWS V14.01,2013-10-02 10:35:00,
2013-10-02 06:40:00,53.2,9.5,30.16,West,262,0.0,0.0,17,0.00,,,0.00,VWS V14.01,2013-10-02 10:40:00,
2013-10-02 06:45:00,53.2,9.5,30.16,West,262,0.0,0.0,17,0.00,,,0.00,VWS V14.01,2013-10-02 10:45:00,
2013-10-02 06:50:00,53.3,9.6,30.16,West,262,0.0,0.0,17,0.00,,,0.00,VWS V14.01,2013-10-02 10:50:00,
2013-10-02 06:55:00,53.3,9.6,30.16,West,262,0.0,0.0,17,0.00,,,0.00,VWS V14.01,2013-10-02 10:55:00,
2013-10-02 07:00:00,53.4,9.7,30.16,West,262,0.0,0.0,17,0.00,,,0.00,VWS V14.01,2013-10-02 11:00:00,
2013-10-02 07:05:00,53.3,9.6,30.17,West,262,0.0,0.0,17,0.00,,,0.00,VWS V14.01,2013-10-02 11:05:00,
2013-10-02 07:10:00,53.3,9.6,30.17,West,262,0.0,0.0,17,0.00,,,0.00,VWS V14.01,2013-10-02 11:10:00,
2013-10-02 07:15:00,53.3,9.6,30.17,West,262,0.0,0.0,17,0.00,,,0.00,VWS V14.01,2013-10-02 11:15:00,
2013-10-02 07:20:00,53.4,9.7,30.17,West,262,0.0,0.0,17,0.00,,,0.00,VWS V14.01,2013-10-02 11:20:00,
2013-10-02 07:25:00,53.4,9.7,30.17,West,262,0.0,0.0,17,0.00,,,0.00,VWS V14.01,2013-10-02 11:25:00,
2013-10-02 07:30:00,53.4,9.7,30.17,West,262,0.0,0.0,17,0.00,,,0.00,VWS V14.01,2013-10-02 11:30:00,
2013-10-02 07:35:00,53.5,9.8,30.17,West,262,0.0,0.0,17,0.00,,,0.00,VWS V14.01,2013-10-02 11:35:00,
2013-10-02 07:40:00,53.4,9.7,30.17,West,262,0.0,0.0,17,0.00,,,0.00,VWS V14.01,2013-10-02 11:40:00,
2013-10-02 07:45:00,53.5,9.8,30.18,West,262,0.0,0.0,17,0.00,,,0.00,VWS V14.01,2013-10-02 11:45:00,
2013-10-02 07:50:00,53.5,9.8,30.18,West,262,0.0,0.0,17,0.00,,,0.00,VWS V14.01,2013-10-02 11:50:00,
2013-10-02 07:55:00,53.5,9.8,30.18,West,262,0.0,0.0,17,0.00,,,0.00,VWS V14.01,2013-10-02 11:55:00,
2013-10-02 08:00:00,53.5,9.8,30.18,West,262,0.0,0.0,17,0.00,,,0.00,VWS V14.01,2013-10-02 12:00:00,
2013-10-02 08:05:00,53.6,9.9,30.18,West,262,0.0,0.0,17,0.00,,,0.00,VWS V14.01,2013-10-02 12:05:00,
2013-10-02 08:10:00,53.6,9.9,30.19,West,262,0.0,0.0,17,0.00,,,0.00,VWS V14.01,2013-10-02 12:10:00,
2013-10-02 08:15:00,53.6,9.9,30.18,West,262,0.0,0.0,17,0.00,,,0.00,VWS V14.01,2013-10-02 12:15:00,
2013-10-02 08:20:00,53.7,9.9,30.19,West,262,0.0,0.0,17,0.00,,,0.00,VWS V14.01,2013-10-02 12:20:00,
2013-10-02 08:25:00,53.8,10.0,30.19,West,262,0.0,0.0,17,0.00,,,0.00,VWS V14.01,2013-10-02 12:25:00,
2013-10-02 08:30:00,53.9,10.1,30.19,West,262,0.0,0.0,17,0.00,,,0.00,VWS V14.01,2013-10-02 12:30:00,
2013-10-02 08:35:00,54.0,10.2,30.19,West,262,0.0,0.0,17,0.00,,,0.00,VWS V14.01,2013-10-02 12:35:00,
2013-10-02 08:40:00,54.1,10.3,30.19,West,262,0.0,0.0,17,0.00,,,0.00,VWS V14.01,2013-10-02 12:40:00,
2013-10-02 08:45:00,54.2,10.4,30.19,West,262,0.0,0.0,17,0.00,,,0.00,VWS V14.01,2013-10-02 12:45:00,
2013-10-02 08:50:00,54.3,9.1,30.20,West,262,0.0,0.0,16,0.00,,,0.00,VWS V14.01,2013-10-02 12:50:00,
2013-10-02 08:55:00,54.4,9.2,30.20,West,262,0.0,0.0,16,0.00,,,0.00,VWS V14.01,2013-10-02 12:55:00,
2013-10-02 09:00:00,54.5,9.2,30.20,West,262,0.0,0.0,16,0.00,,,0.00,VWS V14.01,2013-10-02 13:00:00,
2013-10-02 09:05:00,54.5,9.2,30.20,West,262,0.0,0.0,16,0.00,,,0.00,VWS V14.01,2013-10-02 13:05:00,
2013-10-02 09:10:00,54.6,9.3,30.20,West,262,0.0,0.0,16,0.00,,,0.00,VWS V14.01,2013-10-02 13:10:00,
2013-10-02 09:15:00,54.6,9.3,30.20,West,262,0.0,0.0,16,0.00,,,0.00,VWS V14.01,2013-10-02 13:15:00,
2013-10-02 09:20:00,54.8,9.5,30.20,West,262,0.0,0.0,16,0.00,,,0.00,VWS V14.01,2013-10-02 13:20:00,
2013-10-02 09:25:00,54.8,9.5,30.20,West,262,0.0,0.0,16,0.00,,,0.00,VWS V14.01,2013-10-02 13:25:00,
2013-10-02 09:30:00,54.9,9.6,30.20,West,262,0.0,0.0,16,0.00,,,0.00,VWS V14.01,2013-10-02 13:30:00,
2013-10-02 09:35:00,55.1,9.7,30.20,West,262,0.0,0.0,16,0.00,,,0.00,VWS V14.01,2013-10-02 13:35:00,
2013-10-02 09:40:00,55.2,9.8,30.20,West,262,0.0,0.0,16,0.00,,,0.00,VWS V14.01,2013-10-02 13:40:00,
2013-10-02 09:45:00,55.2,9.8,30.20,West,262,0.0,1.0,16,0.00,,,0.00,VWS V14.01,2013-10-02 13:45:00,
2013-10-02 09:50:00,55.2,9.8,30.20,West,262,0.0,1.0,16,0.00,,,0.00,VWS V14.01,2013-10-02 13:50:00,
2013-10-02 09:55:00,55.3,9.9,30.21,West,262,0.0,1.0,16,0.00,,,0.00,VWS V14.01,2013-10-02 13:55:00,
2013-10-02 10:00:00,55.5,8.6,30.21,West,262,0.0,0.0,15,0.00,,,0.00,VWS V14.01,2013-10-02 14:00:00,
2013-10-02 10:05:00,55.5,8.6,30.21,West,262,0.0,0.0,15,0.00,,,0.00,VWS V14.01,2013-10-02 14:05:00,
2013-10-02 10:10:00,55.7,8.8,30.21,West,262,0.0,0.0,15,0.00,,,0.00,VWS V14.01,2013-10-02 14:10:00,
2013-10-02 10:15:00,55.9,8.9,30.21,West,262,0.0,0.0,15,0.00,,,0.00,VWS V14.01,2013-10-02 14:15:00,
2013-10-02 10:20:00,56.0,9.0,30.21,West,262,0.0,0.0,15,0.00,,,0.00,VWS V14.01,2013-10-02 14:20:00,
2013-10-02 10:25:00,56.0,9.0,30.21,West,262,0.0,0.0,15,0.00,,,0.00,VWS V14.01,2013-10-02 14:25:00,
2013-10-02 10:30:00,56.2,9.2,30.21,West,262,0.0,0.0,15,0.00,,,0.00,VWS V14.01,2013-10-02 14:30:00,
2013-10-02 10:35:00,56.4,9.3,30.21,West,262,0.0,0.0,15,0.00,,,0.00,VWS V14.01,2013-10-02 14:35:00,
2013-10-02 10:40:00,56.7,9.6,30.21,West,262,0.0,0.0,15,0.00,,,0.00,VWS V14.01,2013-10-02 14:40:00,
2013-10-02 10:45:00,57.2,8.4,30.20,West,262,0.0,1.0,14,0.00,,,0.00,VWS V14.01,2013-10-02 14:45:00,
2013-10-02 10:50:00,57.5,8.7,30.20,West,262,0.0,1.0,14,0.00,,,0.00,VWS V14.01,2013-10-02 14:50:00,
2013-10-02 10:55:00,57.6,8.8,30.20,West,262,0.0,1.0,14,0.00,,,0.00,VWS V14.01,2013-10-02 14:55:00,
2013-10-02 11:00:00,57.8,8.9,30.20,West,262,0.0,0.0,14,0.00,,,0.00,VWS V14.01,2013-10-02 15:00:00,
2013-10-02 11:05:00,58.0,9.1,30.20,SSE,159,0.0,2.0,14,0.00,,,0.00,VWS V14.01,2013-10-02 15:05:00,
2013-10-02 11:10:00,58.4,9.4,30.20,SSW,197,1.0,2.0,14,0.00,,,0.00,VWS V14.01,2013-10-02 15:10:00,
2013-10-02 11:15:00,59.1,8.3,30.20,SW,216,0.0,2.0,13,0.00,,,0.00,VWS V14.01,2013-10-02 15:15:00,
2013-10-02 11:20:00,59.6,6.9,30.19,SW,228,0.0,2.0,12,0.00,,,0.00,VWS V14.01,2013-10-02 15:20:00,
2013-10-02 11:25:00,59.9,7.2,30.19,SW,228,0.0,2.0,12,0.00,,,0.00,VWS V14.01,2013-10-02 15:25:00,
2013-10-02 11:30:00,60.3,5.6,30.19,SW,228,0.0,0.0,11,0.00,,,0.00,VWS V14.01,2013-10-02 15:30:00,
2013-10-02 11:33:00,60.6,3.8,30.19,SW,229,0.0,0.0,10,0.00,,,0.00,VWS V14.01,2013-10-02 15:33:00,
2013-10-02 11:38:00,61.1,8.1,30.19,West,273,0.0,1.0,12,0.00,,,0.00,VWS V14.01,2013-10-02 15:38:00,
2013-10-02 11:43:00,61.9,16.6,30.19,West,273,0.0,1.0,17,0.00,,,0.00,VWS V14.01,2013-10-02 15:43:00,
2013-10-02 11:48:00,62.7,29.1,30.18,West,273,0.0,1.0,28,0.00,,,0.00,VWS V14.01,2013-10-02 15:48:00,
2013-10-02 11:53:00,63.6,44.6,30.18,WSW,252,0.0,3.0,50,0.00,,,0.00,VWS V14.01,2013-10-02 15:53:00,
2013-10-02 11:58:00,64.4,49.8,30.18,WNW,298,0.0,3.0,59,0.00,,,0.00,VWS V14.01,2013-10-02 15:58:00,
2013-10-02 12:00:00,57.7,8.9,30.20,West,262,0.0,1.0,14,0.00,,,0.00,VWS V15.00,2013-10-02 16:00:00,
2013-10-02 12:03:00,65.2,52.7,30.18,West,281,0.0,1.0,64,0.00,,,0.00,VWS V14.01,2013-10-02 16:03:00,
2013-10-02 12:08:00,66.0,56.3,30.17,West,264,0.0,4.0,71,0.00,,,0.00,VWS V14.01,2013-10-02 16:08:00,
2013-10-02 12:13:00,66.8,58.6,30.17,WSW,237,0.0,4.0,75,0.00,,,0.00,VWS V14.01,2013-10-02 16:13:00,
2013-10-02 12:18:00,67.5,60.0,30.17,WSW,237,0.0,4.0,77,0.00,,,0.00,VWS V14.01,2013-10-02 16:18:00,
2013-10-02 12:23:00,68.2,60.7,30.17,West,263,0.0,4.0,77,0.00,,,0.00,VWS V14.01,2013-10-02 16:23:00,
2013-10-02 12:28:00,69.0,61.5,30.16,NNW,327,2.0,4.0,77,0.00,,,0.00,VWS V14.01,2013-10-02 16:28:00,
2013-10-02 12:30:00,60.2,5.5,30.19,SW,228,0.0,2.0,11,0.00,,,0.00,VWS V15.00,2013-10-02 16:30:00,
2013-10-02 12:33:00,69.6,60.6,30.16,WSW,240,4.0,4.0,73,0.00,,,0.00,VWS V14.01,2013-10-02 16:33:00,
2013-10-02 12:38:00,70.3,62.0,30.16,SSW,213,0.0,4.0,75,0.00,,,0.00,VWS V14.01,2013-10-02 16:38:00,
2013-10-02 12:43:00,70.9,61.0,30.15,SSW,198,0.0,4.0,71,0.00,,,0.00,VWS V14.01,2013-10-02 16:43:00,
2013-10-02 12:48:00,71.5,59.6,30.15,South,186,0.0,4.0,66,0.00,,,0.00,VWS V14.01,2013-10-02 16:48:00,
2013-10-02 12:53:00,72.0,60.5,30.15,South,186,0.0,4.0,67,0.00,,,0.00,VWS V14.01,2013-10-02 16:53:00,
2013-10-02 12:58:00,72.9,60.9,30.14,South,169,0.0,4.0,66,0.00,,,0.00,VWS V14.01,2013-10-02 16:58:00,
2013-10-02 13:00:00,64.5,49.0,30.18,West,281,0.0,3.0,57,0.00,,,0.00,VWS V15.00,2013-10-02 17:00:00,
2013-10-02 13:03:00,73.2,60.3,30.14,SSE,165,0.0,3.0,64,0.00,,,0.00,VWS V14.01,2013-10-02 17:03:00,
2013-10-02 13:08:00,73.6,61.5,30.14,SW,215,0.0,3.0,66,0.00,,,0.00,VWS V14.01,2013-10-02 17:08:00,
2013-10-02 13:13:00,74.3,61.8,30.14,South,171,0.0,3.0,65,0.00,,,0.00,VWS V14.01,2013-10-02 17:13:00,
2013-10-02 13:18:00,74.8,61.4,30.14,South,190,0.0,4.0,63,0.00,,,0.00,VWS V14.01,2013-10-02 17:18:00,
2013-10-02 13:23:00,75.0,61.1,30.13,ESE,123,0.0,4.0,62,0.00,,,0.00,VWS V14.01,2013-10-02 17:23:00,
2013-10-02 13:28:00,75.1,61.7,30.13,South,172,0.0,4.0,63,0.00,,,0.00,VWS V14.01,2013-10-02 17:28:00,
2013-10-02 13:30:00,69.1,61.6,30.16,NW,326,0.0,4.0,77,0.00,,,0.00,VWS V15.00,2013-10-02 17:30:00,
2013-10-02 13:33:00,75.3,62.3,30.13,East,83,0.0,3.0,64,0.00,,,0.00,VWS V14.01,2013-10-02 17:33:00,
2013-10-02 13:38:00,75.8,62.3,30.13,WSW,238,1.0,4.0,63,0.00,,,0.00,VWS V14.01,2013-10-02 17:38:00,
2013-10-02 13:43:00,75.9,61.5,30.12,WSW,242,0.0,4.0,61,0.00,,,0.00,VWS V14.01,2013-10-02 17:43:00,
2013-10-02 13:48:00,75.3,60.9,30.12,WSW,250,1.0,4.0,61,0.00,,,0.00,VWS V14.01,2013-10-02 17:48:00,
2013-10-02 13:53:00,75.4,61.9,30.12,West,262,4.0,4.0,63,0.00,,,0.00,VWS V14.01,2013-10-02 17:53:00,
2013-10-02 13:58:00,75.8,61.9,30.11,WSW,255,1.0,4.0,62,0.00,,,0.00,VWS V14.01,2013-10-02 17:58:00,
2013-10-02 14:00:00,73.0,60.5,30.14,South,169,0.0,4.0,65,0.00,,,0.00,VWS V15.00,2013-10-02 18:00:00,
2013-10-02 14:03:00,76.0,61.6,30.11,South,189,1.0,3.0,61,0.00,,,0.00,VWS V14.01,2013-10-02 18:03:00,
2013-10-02 14:08:00,76.3,61.9,30.11,South,178,1.0,3.0,61,0.00,,,0.00,VWS V14.01,2013-10-02 18:08:00,
2013-10-02 14:13:00,76.3,60.5,30.11,SSE,148,0.0,3.0,58,0.00,,,0.00,VWS V14.01,2013-10-02 18:13:00,
2013-10-02 14:18:00,75.9,61.0,30.10,NE,52,0.0,3.0,60,0.00,,,0.00,VWS V14.01,2013-10-02 18:18:00,
2013-10-02 14:23:00,75.9,61.5,30.10,NE,52,0.0,3.0,61,0.00,,,0.00,VWS V14.01,2013-10-02 18:23:00,
2013-10-02 14:27:00,76.3,61.4,30.10,NE,56,0.0,3.0,60,0.00,,,0.00,VWS V14.01,2013-10-02 18:27:00,
2013-10-02 14:30:00,75.1,61.2,30.13,South,169,0.0,4.0,62,0.00,,,0.00,VWS V15.00,2013-10-02 18:30:00,
2013-10-02 14:32:00,76.6,60.7,30.10,ENE,76,0.0,1.0,58,0.00,,,0.00,VWS V14.01,2013-10-02 18:32:00,
2013-10-02 14:37:00,76.8,62.8,30.10,ENE,65,0.0,2.0,62,0.00,,,0.00,VWS V14.01,2013-10-02 18:37:00,
2013-10-02 14:42:00,76.6,61.7,30.10,ENE,65,0.0,2.0,60,0.00,,,0.00,VWS V14.01,2013-10-02 18:42:00,
2013-10-02 14:47:00,76.5,62.5,30.10,ENE,65,0.0,2.0,62,0.00,,,0.00,VWS V14.01,2013-10-02 18:47:00,
2013-10-02 14:52:00,76.3,63.2,30.10,ENE,65,0.0,2.0,64,0.00,,,0.00,VWS V14.01,2013-10-02 18:52:00,
2013-10-02 14:57:00,75.7,62.7,30.10,ENE,65,0.0,2.0,64,0.00,,,0.00,VWS V14.01,2013-10-02 18:57:00,
2013-10-02 15:00:00,76.0,61.6,30.11,West,262,1.0,4.0,61,0.00,,,0.00,VWS V15.00,2013-10-02 19:00:00,
2013-10-02 15:02:00,75.4,62.8,30.09,ENE,65,0.0,0.0,65,0.00,,,0.00,VWS V14.01,2013-10-02 19:02:00,
2013-10-02 15:07:00,75.1,63.8,30.10,ENE,65,0.0,0.0,68,0.00,,,0.00,VWS V14.01,2013-10-02 19:07:00,
2013-10-02 15:12:00,74.8,63.1,30.10,ENE,65,0.0,0.0,67,0.00,,,0.00,VWS V14.01,2013-10-02 19:12:00,
2013-10-02 15:17:00,74.6,63.3,30.10,ENE,65,0.0,0.0,68,0.00,,,0.00,VWS V14.01,2013-10-02 19:17:00,
2013-10-02 15:22:00,74.4,63.2,30.09,ENE,65,0.0,0.0,68,0.00,,,0.00,VWS V14.01,2013-10-02 19:22:00,
2013-10-02 15:27:00,74.1,63.7,30.09,ENE,65,0.0,0.0,70,0.00,,,0.00,VWS V14.01,2013-10-02 19:27:00,
2013-10-02 15:30:00,76.3,61.4,30.10,NE,56,0.0,3.0,60,0.00,,,0.00,VWS V15.00,2013-10-02 19:30:00,
2013-10-02 15:32:00,73.8,63.4,30.09,ENE,65,0.0,0.0,70,0.00,,,0.00,VWS V14.01,2013-10-02 19:32:00,
2013-10-02 15:37:00,73.6,64.0,30.09,ENE,65,0.0,0.0,72,0.00,,,0.00,VWS V14.01,2013-10-02 19:37:00,
2013-10-02 15:42:00,73.3,62.5,30.09,ENE,65,0.0,0.0,69,0.00,,,0.00,VWS V14.01,2013-10-02 19:42:00,
2013-10-02 15:47:00,73.2,63.2,30.09,ENE,65,0.0,0.0,71,0.00,,,0.00,VWS V14.01,2013-10-02 19:47:00,
2013-10-02 15:52:00,73.1,63.2,30.09,ENE,65,0.0,0.0,71,0.00,,,0.00,VWS V14.01,2013-10-02 19:52:00,
2013-10-02 15:57:00,73.1,63.5,30.09,ENE,65,0.0,0.0,72,0.00,,,0.00,VWS V14.01,2013-10-02 19:57:00,
2013-10-02 16:00:00,75.6,62.1,30.10,ENE,65,0.0,2.0,63,0.00,,,0.00,VWS V15.00,2013-10-02 20:00:00,
2013-10-02 16:02:00,73.3,63.3,30.08,ENE,65,0.0,0.0,71,0.00,,,0.00,VWS V14.01,2013-10-02 20:02:00,
2013-10-02 16:07:00,73.6,62.8,30.08,ENE,65,0.0,1.0,69,0.00,,,0.00,VWS V14.01,2013-10-02 20:07:00,
2013-10-02 16:12:00,73.9,61.8,30.08,ENE,65,0.0,1.0,66,0.00,,,0.00,VWS V14.01,2013-10-02 20:12:00,
2013-10-02 16:17:00,74.1,61.6,30.08,ENE,65,0.0,1.0,65,0.00,,,0.00,VWS V14.01,2013-10-02 20:17:00,
2013-10-02 16:22:00,74.3,61.8,30.08,ENE,65,0.0,1.0,65,0.00,,,0.00,VWS V14.01,2013-10-02 20:22:00,
2013-10-02 16:27:00,74.5,62.0,30.08,SSE,160,1.0,1.0,65,0.00,,,0.00,VWS V14.01,2013-10-02 20:27:00,
2013-10-02 16:30:00,74.0,62.8,30.09,ENE,65,0.0,0.0,68,0.00,,,0.00,VWS V15.00,2013-10-02 20:30:00,
2013-10-02 16:32:00,74.5,62.4,30.08,SSW,194,0.0,1.0,66,0.00,,,0.00,VWS V14.01,2013-10-02 20:32:00,
2013-10-02 16:37:00,74.5,62.0,30.08,SSW,194,0.0,1.0,65,0.00,,,0.00,VWS V14.01,2013-10-02 20:37:00,
2013-10-02 16:42:00,74.5,62.4,30.08,SSW,193,0.0,4.0,66,0.00,,,0.00,VWS V14.01,2013-10-02 20:42:00,
2013-10-02 16:47:00,74.6,62.5,30.08,SSW,198,4.0,4.0,66,0.00,,,0.00,VWS V14.01,2013-10-02 20:47:00,
2013-10-02 16:52:00,74.6,62.5,30.08,SSW,200,0.0,4.0,66,0.00,,,0.00,VWS V14.01,2013-10-02 20:52:00,
2013-10-02 16:57:00,74.4,61.9,30.08,SW,215,0.0,4.0,65,0.00,,,0.00,VWS V14.01,2013-10-02 20:57:00,
2013-10-02 17:00:00,73.1,63.2,30.08,ENE,65,0.0,0.0,71,0.00,,,0.00,VWS V15.00,2013-10-02 21:00:00,
2013-10-02 17:02:00,74.2,63.0,30.08,WSW,240,0.0,1.0,68,0.00,,,0.00,VWS V14.01,2013-10-02 21:02:00,
2013-10-02 17:07:00,73.9,63.1,30.08,SE,125,0.0,1.0,69,0.00,,,0.00,VWS V14.01,2013-10-02 21:07:00,
2013-10-02 17:12:00,73.7,62.9,30.08,South,172,0.0,1.0,69,0.00,,,0.00,VWS V14.01,2013-10-02 21:12:00,
2013-10-02 17:17:00,73.5,63.1,30.08,South,172,0.0,1.0,70,0.00,,,0.00,VWS V14.01,2013-10-02 21:17:00,
2013-10-02 17:22:00,73.3,63.7,30.08,South,172,0.0,1.0,72,0.00,,,0.00,VWS V14.01,2013-10-02 21:22:00,
2013-10-02 17:27:00,73.1,63.5,30.09,South,172,0.0,1.0,72,0.00,,,0.00,VWS V14.01,2013-10-02 21:27:00,
2013-10-02 17:30:00,74.5,61.5,30.08,SSW,194,0.0,3.0,64,0.00,,,0.00,VWS V15.00,2013-10-02 21:30:00,
2013-10-02 17:32:00,72.8,63.3,30.08,South,174,0.0,1.0,72,0.00,,,0.00,VWS V14.01,2013-10-02 21:32:00,
2013-10-02 17:37:00,72.5,63.0,30.08,South,175,0.0,2.0,72,0.00,,,0.00,VWS V14.01,2013-10-02 21:37:00,
2013-10-02 17:42:00,72.2,62.7,30.08,South,171,0.0,2.0,72,0.00,,,0.00,VWS V14.01,2013-10-02 21:42:00,
2013-10-02 17:47:00,72.0,62.9,30.08,South,172,0.0,2.0,73,0.00,,,0.00,VWS V14.01,2013-10-02 21:47:00,
2013-10-02 17:52:00,71.8,63.1,30.08,South,172,0.0,2.0,74,0.00,,,0.00,VWS V14.01,2013-10-02 21:52:00,
2013-10-02 17:57:00,71.7,63.0,30.09,South,172,0.0,2.0,74,0.00,,,0.00,VWS V14.01,2013-10-02 21:57:00,
2013-10-02 18:00:00,74.3,62.2,30.08,SW,215,0.0,4.0,66,0.00,,,0.00,VWS V15.00,2013-10-02 22:00:00,
2013-10-02 18:02:00,71.5,63.2,30.08,South,172,0.0,0.0,75,0.00,,,0.00,VWS V14.01,2013-10-02 22:02:00,
2013-10-02 18:07:00,71.3,62.6,30.09,South,172,0.0,0.0,74,0.00,,,0.00,VWS V14.01,2013-10-02 22:07:00,
2013-10-02 18:12:00,71.1,63.2,30.09,South,172,0.0,0.0,76,0.00,,,0.00,VWS V14.01,2013-10-02 22:12:00,
2013-10-02 18:17:00,70.9,63.3,30.09,South,172,0.0,0.0,77,0.00,,,0.00,VWS V14.01,2013-10-02 22:17:00,
2013-10-02 18:22:00,70.8,63.2,30.09,South,172,0.0,0.0,77,0.00,,,0.00,VWS V14.01,2013-10-02 22:22:00,
2013-10-02 18:27:00,70.7,63.1,30.09,South,172,0.0,0.0,77,0.00,,,0.00,VWS V14.01,2013-10-02 22:27:00,
2013-10-02 18:30:00,73.0,63.5,30.08,South,172,0.0,1.0,72,0.00,,,0.00,VWS V15.00,2013-10-02 22:30:00,
2013-10-02 18:32:00,70.6,63.4,30.09,South,172,0.0,0.0,78,0.00,,,0.00,VWS V14.01,2013-10-02 22:32:00,
2013-10-02 18:37:00,70.6,63.4,30.09,South,172,0.0,0.0,78,0.00,,,0.00,VWS V14.01,2013-10-02 22:37:00,
2013-10-02 18:42:00,70.5,63.3,30.09,South,172,0.0,0.0,78,0.00,,,0.00,VWS V14.01,2013-10-02 22:42:00,
2013-10-02 18:47:00,70.2,63.0,30.09,South,172,0.0,0.0,78,0.00,,,0.00,VWS V14.01,2013-10-02 22:47:00,
2013-10-02 18:52:00,69.9,62.7,30.09,South,172,0.0,0.0,78,0.00,,,0.00,VWS V14.01,2013-10-02 22:52:00,
2013-10-02 18:57:00,69.5,62.3,30.09,South,172,0.0,0.0,78,0.00,,,0.00,VWS V14.01,2013-10-02 22:57:00,
2013-10-02 19:00:00,71.6,62.9,30.08,South,172,0.0,2.0,74,0.00,,,0.00,VWS V15.00,2013-10-02 23:00:00,
2013-10-02 19:02:00,69.1,61.6,30.09,South,172,0.0,0.0,77,0.00,,,0.00,VWS V14.01,2013-10-02 23:02:00,
2013-10-02 19:07:00,68.9,61.0,30.09,South,172,0.0,0.0,76,0.00,,,0.00,VWS V14.01,2013-10-02 23:07:00,
2013-10-02 19:12:00,68.4,60.2,30.09,South,172,0.0,0.0,75,0.00,,,0.00,VWS V14.01,2013-10-02 23:12:00,
2013-10-02 19:17:00,67.9,59.3,30.10,South,172,0.0,0.0,74,0.00,,,0.00,VWS V14.01,2013-10-02 23:17:00,
2013-10-02 19:22:00,67.6,59.0,30.10,South,172,0.0,0.0,74,0.00,,,0.00,VWS V14.01,2013-10-02 23:22:00,
2013-10-02 19:27:00,67.2,58.3,30.10,South,172,0.0,0.0,73,0.00,,,0.00,VWS V14.01,2013-10-02 23:27:00,
2013-10-02 19:30:00,70.7,63.1,30.09,South,172,0.0,0.0,77,0.00,,,0.00,VWS V15.00,2013-10-02 23:30:00,
2013-10-02 19:32:00,66.9,57.2,30.10,South,172,0.0,0.0,71,0.00,,,0.00,VWS V14.01,2013-10-02 23:32:00,
2013-10-02 19:37:00,66.5,56.0,30.10,South,172,0.0,0.0,69,0.00,,,0.00,VWS V14.01,2013-10-02 23:37:00,
2013-10-02 19:42:00,66.0,54.7,30.10,South,172,0.0,0.0,67,0.00,,,0.00,VWS V14.01,2013-10-02 23:42:00,
2013-10-02 19:47:00,65.8,54.5,30.10,South,172,0.0,0.0,67,0.00,,,0.00,VWS V14.01,2013-10-02 23:47:00,
2013-10-02 19:49:00,65.7,54.0,30.10,South,172,0.0,0.0,66,0.00,,,0.00,VWS V14.01,2013-10-02 23:49:00,
2013-10-02 19:54:00,65.4,52.5,30.11,South,172,0.0,0.0,63,0.00,,,0.00,VWS V14.01,2013-10-02 23:54:00,
2013-10-02 19:59:00,65.1,51.3,30.11,South,172,0.0,0.0,61,0.00,,,0.00,VWS V14.01,2013-10-02 23:59:00,
2013-10-02 20:00:00,69.4,62.2,30.09,South,172,0.0,0.0,78,0.00,,,0.00,VWS V15.00,2013-10-03 00:00:00,
2013-10-02 20:04:00,64.8,49.7,30.11,South,172,0.0,0.0,58,0.00,,,0.00,VWS V14.01,2013-10-03 00:04:00,
2013-10-02 20:09:00,64.5,48.0,30.11,South,172,0.0,0.0,55,0.00,,,0.00,VWS V14.01,2013-10-03 00:09:00,
2013-10-02 20:14:00,64.2,46.7,30.11,South,172,0.0,0.0,53,0.00,,,0.00,VWS V14.01,2013-10-03 00:14:00,
2013-10-02 20:19:00,63.9,45.4,30.11,South,172,0.0,0.0,51,0.00,,,0.00,VWS V14.01,2013-10-03 00:19:00,
2013-10-02 20:24:00,63.6,43.0,30.11,South,172,0.0,0.0,47,0.00,,,0.00,VWS V14.01,2013-10-03 00:24:00,
2013-10-02 20:29:00,63.4,42.3,30.11,South,172,0.0,0.0,46,0.00,,,0.00,VWS V14.01,2013-10-03 00:29:00,
2013-10-02 20:30:00,67.1,58.2,30.10,South,172,0.0,0.0,73,0.00,,,0.00,VWS V15.00,2013-10-03 00:30:00,
2013-10-02 20:34:00,63.1,42.0,30.11,South,172,0.0,0.0,46,0.00,,,0.00,VWS V14.01,2013-10-03 00:34:00,
2013-10-02 20:39:00,62.9,41.8,30.12,South,172,0.0,0.0,46,0.00,,,0.00,VWS V14.01,2013-10-03 00:39:00,
2013-10-02 20:44:00,62.7,41.1,30.12,South,172,0.0,0.0,45,0.00,,,0.00,VWS V14.01,2013-10-03 00:44:00,
2013-10-02 20:49:00,62.5,40.3,30.12,South,172,0.0,0.0,44,0.00,,,0.00,VWS V14.01,2013-10-03 00:49:00,
2013-10-02 20:54:00,62.3,38.3,30.12,South,172,0.0,0.0,41,0.00,,,0.00,VWS V14.01,2013-10-03 00:54:00,
2013-10-02 20:59:00,62.1,37.5,30.12,South,172,0.0,0.0,40,0.00,,,0.00,VWS V14.01,2013-10-03 00:59:00,
2013-10-02 21:00:00,65.1,51.3,30.11,South,172,0.0,0.0,61,0.00,,,0.00,VWS V15.00,2013-10-03 01:00:00,
2013-10-02 21:03:00,61.9,37.3,30.12,South,172,0.0,0.0,40,0.00,,,0.00,VWS V14.01,2013-10-03 01:03:00,
2013-10-02 21:08:00,61.6,38.3,30.12,South,172,0.0,0.0,42,0.00,,,0.00,VWS V14.01,2013-10-03 01:08:00,
2013-10-02 21:13:00,61.4,38.1,30.12,South,172,0.0,0.0,42,0.00,,,0.00,VWS V14.01,2013-10-03 01:13:00,
2013-10-02 21:18:00,61.2,36.7,30.12,South,172,0.0,0.0,40,0.00,,,0.00,VWS V14.01,2013-10-03 01:18:00,
2013-10-02 21:24:00,61.1,36.0,30.12,South,172,0.0,0.0,39,0.00,,,0.00,VWS V14.01,2013-10-03 01:24:00,
2013-10-02 21:29:00,60.9,34.5,30.12,South,172,0.0,0.0,37,0.00,,,0.00,VWS V14.01,2013-10-03 01:29:00,
2013-10-02 21:30:00,63.4,42.3,30.11,South,172,0.0,0.0,46,0.00,,,0.00,VWS V15.00,2013-10-03 01:30:00,
2013-10-02 21:34:00,60.7,33.6,30.12,South,172,0.0,0.0,36,0.00,,,0.00,VWS V14.01,2013-10-03 01:34:00,
2013-10-02 21:38:00,60.6,32.8,30.13,South,172,0.0,0.0,35,0.00,,,0.00,VWS V14.01,2013-10-03 01:38:00,
2013-10-02 21:43:00,60.4,31.9,30.13,South,172,0.0,0.0,34,0.00,,,0.00,VWS V14.01,2013-10-03 01:43:00,
2013-10-02 21:48:00,60.3,31.8,30.13,South,172,0.0,0.0,34,0.00,,,0.00,VWS V14.01,2013-10-03 01:48:00,
2013-10-02 21:53:00,60.2,31.8,30.13,South,172,0.0,0.0,34,0.00,,,0.00,VWS V14.01,2013-10-03 01:53:00,
2013-10-02 21:58:00,60.0,30.8,30.14,South,172,0.0,0.0,33,0.00,,,0.00,VWS V14.01,2013-10-03 01:58:00,
2013-10-02 22:00:00,62.1,37.5,30.12,South,172,0.0,0.0,40,0.00,,,0.00,VWS V15.00,2013-10-03 02:00:00,
2013-10-02 22:03:00,59.8,29.9,30.14,South,172,0.0,0.0,32,0.00,,,0.00,VWS V14.01,2013-10-03 02:03:00,
2013-10-02 22:05:00,59.8,29.9,30.14,South,172,0.0,0.0,32,0.00,,,0.00,VWS V14.01,2013-10-03 02:05:00,
2013-10-02 22:10:00,59.6,29.7,30.14,South,172,0.0,0.0,32,0.00,,,0.00,VWS V14.01,2013-10-03 02:10:00,
2013-10-02 22:15:00,59.5,29.6,30.14,South,172,0.0,0.0,32,0.00,,,0.00,VWS V14.01,2013-10-03 02:15:00,
2013-10-02 22:20:00,59.4,28.0,30.14,South,172,0.0,0.0,30,0.00,,,0.00,VWS V14.01,2013-10-03 02:20:00,
2013-10-02 22:25:00,59.2,27.8,30.14,South,172,0.0,0.0,30,0.00,,,0.00,VWS V14.01,2013-10-03 02:25:00,
2013-10-02 22:30:00,59.0,27.6,30.15,South,172,0.0,0.0,30,0.00,,,0.00,VWS V14.01,2013-10-03 02:30:00,
2013-10-02 22:35:00,58.9,27.5,30.15,South,172,0.0,0.0,30,0.00,,,0.00,VWS V14.01,2013-10-03 02:35:00,
2013-10-02 22:40:00,58.7,26.5,30.15,South,172,0.0,0.0,29,0.00,,,0.00,VWS V14.01,2013-10-03 02:40:00,
2013-10-02 22:45:00,58.6,25.6,30.15,South,172,0.0,0.0,28,0.00,,,0.00,VWS V14.01,2013-10-03 02:45:00,
2013-10-02 22:50:00,58.5,25.5,30.15,South,172,0.0,0.0,28,0.00,,,0.00,VWS V14.01,2013-10-03 02:50:00,
2013-10-02 22:55:00,58.4,24.6,30.15,South,172,0.0,0.0,27,0.00,,,0.00,VWS V14.01,2013-10-03 02:55:00,
2013-10-02 23:00:00,58.3,24.5,30.15,South,172,0.0,0.0,27,0.00,,,0.00,VWS V14.01,2013-10-03 03:00:00,
2013-10-02 23:05:00,58.2,24.4,30.15,South,172,0.0,0.0,27,0.00,,,0.00,VWS V14.01,2013-10-03 03:05:00,
2013-10-02 23:10:00,58.1,24.3,30.15,South,172,0.0,0.0,27,0.00,,,0.00,VWS V14.01,2013-10-03 03:10:00,
2013-10-02 23:15:00,58.0,24.2,30.16,South,172,0.0,0.0,27,0.00,,,0.00,VWS V14.01,2013-10-03 03:15:00,
2013-10-02 23:20:00,57.8,24.1,30.15,South,172,0.0,0.0,27,0.00,,,0.00,VWS V14.01,2013-10-03 03:20:00,
2013-10-02 23:25:00,57.7,24.0,30.16,South,172,0.0,0.0,27,0.00,,,0.00,VWS V14.01,2013-10-03 03:25:00,
2013-10-02 23:30:00,57.6,23.0,30.16,South,172,0.0,0.0,26,0.00,,,0.00,VWS V14.01,2013-10-03 03:30:00,
2013-10-02 23:35:00,57.5,22.0,30.16,South,172,0.0,0.0,25,0.00,,,0.00,VWS V14.01,2013-10-03 03:35:00,
2013-10-02 23:40:00,57.4,21.9,30.16,South,172,0.0,0.0,25,0.00,,,0.00,VWS V14.01,2013-10-03 03:40:00,
2013-10-02 23:45:00,57.3,19.8,30.16,South,172,0.0,0.0,23,0.00,,,0.00,VWS V14.01,2013-10-03 03:45:00,
2013-10-02 23:50:00,57.4,16.7,30.16,South,172,0.0,0.0,20,0.00,,,0.00,VWS V14.01,2013-10-03 03:50:00,
2013-10-02 23:55:00,57.5,15.6,30.16,South,172,0.0,0.0,19,0.00,,,0.00,VWS V14.01,2013-10-03 03:55:00,